createdAt,value
2018-02-09T00:00:02.199Z,79.65
2018-02-09T00:01:07.907Z,76.10
2018-02-09T00:02:14.443Z,72.25
2018-02-09T00:03:20.937Z,78.97
2018-02-09T00:04:26.620Z,78.28
2018-02-09T00:05:32.359Z,72.57
2018-02-09T00:06:38.087Z,72.97
2018-02-09T00:07:43.798Z,72.70
2018-02-09T00:08:49.499Z,68.75
2018-02-09T00:09:55.985Z,68.22
2018-02-09T00:11:01.728Z,65.25
2018-02-09T00:12:07.439Z,75.22
2018-02-09T00:13:13.919Z,80.22
2018-02-09T00:14:20.392Z,75.97
2018-02-09T00:15:26.113Z,69.45
2018-02-09T00:16:32.607Z,73.50
2018-02-09T00:17:38.328Z,78.85
2018-02-09T00:18:45.086Z,81.30
2018-02-09T00:19:50.803Z,68.10
2018-02-09T00:20:57.313Z,81.80
2018-02-09T00:22:03.053Z,70.53
2018-02-09T00:23:08.780Z,77.25
2018-02-09T00:24:14.487Z,75.18
2018-02-09T00:25:20.979Z,69.32
2018-02-09T00:26:26.695Z,69.93
2018-02-09T00:27:33.227Z,66.32
2018-02-09T00:28:38.949Z,76.68
2018-02-09T00:29:44.664Z,79.68
2018-02-09T00:30:50.366Z,78.62
2018-02-09T00:31:56.906Z,81.45
2018-02-09T00:33:02.808Z,75.82
2018-02-09T00:34:08.534Z,73.30
2018-02-09T00:35:14.239Z,71.28
2018-02-09T00:36:19.963Z,85.90
2018-02-09T00:37:25.906Z,79.10
2018-02-09T00:38:31.675Z,77.47
2018-02-09T00:39:38.174Z,73.93
2018-02-09T00:40:43.879Z,72.70
2018-02-09T00:41:50.379Z,78.00
2018-02-09T00:42:56.082Z,75.80
2018-02-09T00:44:01.824Z,76.45
2018-02-09T00:45:08.368Z,75.37
2018-02-09T00:46:14.874Z,71.65
2018-02-09T00:47:20.592Z,77.82
2018-02-09T00:48:27.068Z,76.85
2018-02-09T00:49:32.801Z,76.12
2018-02-09T00:50:38.515Z,79.97
2018-02-09T00:51:44.221Z,80.40
2018-02-09T00:52:49.926Z,77.20
2018-02-09T00:53:55.636Z,79.30
2018-02-09T00:55:02.171Z,83.28
2018-02-09T00:56:07.890Z,80.45
2018-02-09T00:57:13.633Z,73.35
2018-02-09T00:58:19.339Z,74.70
2018-02-09T00:59:25.083Z,76.05
2018-02-09T01:00:31.650Z,76.70
2018-02-09T01:01:38.108Z,77.35
2018-02-09T01:02:43.828Z,90.10
2018-02-09T01:03:50.311Z,78.70
2018-02-09T01:04:56.016Z,79.85
2018-02-09T01:06:02.544Z,73.03
2018-02-09T01:07:08.286Z,79.55
2018-02-09T01:08:14.391Z,72.32
2018-02-09T01:09:20.102Z,76.20
2018-02-09T01:10:25.828Z,85.70
2018-02-09T01:11:31.577Z,73.32
2018-02-09T01:12:37.279Z,83.20
2018-02-09T01:13:43.005Z,71.85
2018-02-09T01:14:48.717Z,90.05
2018-02-09T01:15:55.185Z,76.03
2018-02-09T01:17:00.927Z,74.18
2018-02-09T01:18:06.640Z,82.80
2018-02-09T01:19:13.288Z,81.28
2018-02-09T01:20:18.989Z,77.00
2018-02-09T01:21:24.753Z,77.30
2018-02-09T01:22:30.517Z,82.93
2018-02-09T01:23:36.400Z,83.45
2018-02-09T01:24:42.886Z,83.28
2018-02-09T01:25:48.605Z,76.35
2018-02-09T01:26:54.314Z,87.62
2018-02-09T01:28:00.041Z,80.50
2018-02-09T01:29:05.748Z,85.32
2018-02-09T01:30:11.458Z,79.35
2018-02-09T01:31:17.933Z,80.55
2018-02-09T01:32:23.650Z,78.47
2018-02-09T01:33:30.147Z,85.95
2018-02-09T01:34:35.863Z,78.80
2018-02-09T01:35:41.571Z,76.25
2018-02-09T01:36:47.288Z,82.07
2018-02-09T01:37:53.001Z,74.20
2018-02-09T01:38:58.736Z,83.97
2018-02-09T01:40:04.486Z,77.37
2018-02-09T01:41:10.211Z,82.05
2018-02-09T01:42:15.923Z,89.13
2018-02-09T01:43:21.720Z,83.87
2018-02-09T01:44:27.492Z,83.28
2018-02-09T01:45:33.199Z,75.37
2018-02-09T01:46:38.923Z,82.88
2018-02-09T01:47:44.631Z,78.68
2018-02-09T01:48:51.126Z,83.25
2018-02-09T01:50:13.742Z,81.90
2018-02-09T01:51:20.219Z,72.20
2018-02-09T01:52:25.936Z,87.35
2018-02-09T01:53:32.421Z,82.20
2018-02-09T01:54:38.156Z,77.90
2018-02-09T01:55:43.881Z,80.30
2018-02-09T01:56:49.711Z,84.60
2018-02-09T01:57:55.415Z,81.12
2018-02-09T01:59:01.137Z,81.45
2018-02-09T02:00:06.523Z,75.12
2018-02-09T02:01:13.024Z,77.78
2018-02-09T02:02:18.745Z,82.53
2018-02-09T02:03:24.447Z,81.97
2018-02-09T02:04:30.167Z,81.45
2018-02-09T02:05:35.879Z,84.15
2018-02-09T02:06:41.616Z,84.57
2018-02-09T02:07:47.105Z,80.72
2018-02-09T02:08:53.011Z,78.97
2018-02-09T02:09:58.728Z,80.18
2018-02-09T02:11:05.016Z,77.20
2018-02-09T02:12:10.752Z,82.22
2018-02-09T02:13:16.460Z,82.65
2018-02-09T02:14:22.181Z,79.18
2018-02-09T02:15:29.513Z,83.12
2018-02-09T02:16:35.234Z,79.80
2018-02-09T02:17:41.778Z,83.50
2018-02-09T02:18:47.672Z,66.05
2018-02-09T02:19:53.379Z,92.78
2018-02-09T02:20:59.092Z,80.85
2018-02-09T02:22:05.579Z,81.93
2018-02-09T02:23:11.330Z,80.72
2018-02-09T02:24:17.031Z,88.32
2018-02-09T02:25:23.508Z,86.85
2018-02-09T02:26:29.218Z,84.78
2018-02-09T02:27:35.711Z,86.43
2018-02-09T02:28:41.458Z,83.65
2018-02-09T02:29:47.168Z,81.25
2018-02-09T02:30:53.642Z,80.28
2018-02-09T02:31:59.370Z,83.95
2018-02-09T02:33:05.511Z,84.35
2018-02-09T02:34:12.012Z,75.07
2018-02-09T02:35:17.707Z,85.32
2018-02-09T02:36:24.184Z,76.68
2018-02-09T02:37:30.670Z,94.68
2018-02-09T02:38:36.378Z,80.60
2018-02-09T02:39:42.875Z,83.75
2018-02-09T02:40:48.592Z,85.50
2018-02-09T02:41:55.077Z,78.47
2018-02-09T02:43:00.788Z,90.47
2018-02-09T02:44:06.504Z,77.90
2018-02-09T02:45:12.251Z,78.82
2018-02-09T02:46:18.738Z,86.90
2018-02-09T02:47:24.451Z,83.40
2018-02-09T02:48:30.928Z,77.85
2018-02-09T02:49:36.465Z,85.53
2018-02-09T02:50:42.212Z,82.25
2018-02-09T02:51:47.919Z,79.97
2018-02-09T02:52:54.392Z,77.45
2018-02-09T02:54:00.872Z,86.03
2018-02-09T02:55:06.594Z,86.57
2018-02-09T02:56:13.099Z,92.20
2018-02-09T02:57:18.815Z,97.07
2018-02-09T02:58:24.523Z,80.35
2018-02-09T02:59:31.011Z,87.93
2018-02-09T03:00:36.749Z,93.43
2018-02-09T03:01:42.495Z,76.22
2018-02-09T03:02:48.212Z,83.68
2018-02-09T03:03:54.701Z,88.03
2018-02-09T03:05:00.449Z,89.15
2018-02-09T03:06:06.006Z,84.87
2018-02-09T03:07:11.753Z,84.75
2018-02-09T03:08:17.468Z,88.55
2018-02-09T03:09:23.192Z,88.80
2018-02-09T03:10:28.717Z,94.55
2018-02-09T03:11:34.431Z,85.25
2018-02-09T03:12:40.939Z,89.32
2018-02-09T03:13:46.648Z,95.47
2018-02-09T03:14:53.131Z,85.38
2018-02-09T03:15:58.690Z,89.20
2018-02-09T03:17:04.399Z,87.47
2018-02-09T03:18:10.130Z,78.62
2018-02-09T03:19:15.855Z,88.97
2018-02-09T03:20:22.662Z,83.55
2018-02-09T03:21:28.366Z,94.93
2018-02-09T03:22:34.844Z,86.05
2018-02-09T03:23:40.579Z,92.57
2018-02-09T03:24:46.300Z,89.07
2018-02-09T03:25:52.800Z,92.22
2018-02-09T03:26:58.508Z,90.32
2018-02-09T03:28:04.981Z,78.47
2018-02-09T03:29:10.728Z,99.72
2018-02-09T03:30:16.453Z,94.47
2018-02-09T03:31:22.180Z,91.95
2018-02-09T03:32:28.704Z,86.45
2018-02-09T03:33:34.427Z,91.25
2018-02-09T03:34:40.170Z,93.12
2018-02-09T03:35:45.891Z,93.03
2018-02-09T03:36:51.615Z,109.55
2018-02-09T03:37:57.352Z,99.15
2018-02-09T03:39:03.591Z,94.80
2018-02-09T03:40:10.117Z,88.72
2018-02-09T03:41:15.835Z,84.65
2018-02-09T03:42:21.560Z,88.97
2018-02-09T03:43:27.271Z,88.05
2018-02-09T03:44:33.769Z,88.18
2018-02-09T03:45:39.512Z,95.10
2018-02-09T03:46:45.249Z,88.32
2018-02-09T03:47:50.959Z,95.93
2018-02-09T03:48:57.460Z,99.75
2018-02-09T03:50:03.192Z,94.55
2018-02-09T03:51:08.927Z,78.03
2018-02-09T03:52:14.644Z,95.65
2018-02-09T03:53:21.141Z,92.05
2018-02-09T03:54:26.995Z,99.70
2018-02-09T03:55:32.712Z,93.75
2018-02-09T03:56:38.461Z,95.57
2018-02-09T03:57:44.176Z,106.15
2018-02-09T03:58:50.660Z,99.35
2018-02-09T03:59:56.376Z,92.20
2018-02-09T04:01:02.863Z,93.93
2018-02-09T04:02:08.605Z,100.28
2018-02-09T04:03:14.335Z,102.22
2018-02-09T04:04:20.064Z,94.45
2018-02-09T04:05:25.795Z,104.10
2018-02-09T04:06:32.042Z,96.60
2018-02-09T04:07:38.548Z,98.43
2018-02-09T04:08:44.316Z,99.87
2018-02-09T04:09:50.024Z,97.37
2018-02-09T04:10:55.753Z,107.72
2018-02-09T04:12:01.467Z,94.05
2018-02-09T04:13:07.971Z,94.37
2018-02-09T04:14:14.012Z,91.75
2018-02-09T04:15:19.794Z,93.57
2018-02-09T04:16:25.506Z,97.70
2018-02-09T04:17:31.229Z,98.85
2018-02-09T04:18:36.976Z,97.22
2018-02-09T04:19:42.704Z,101.05
2018-02-09T04:20:48.235Z,99.35
2018-02-09T04:21:53.956Z,94.82
2018-02-09T04:23:00.451Z,87.25
2018-02-09T04:24:06.207Z,110.20
2018-02-09T04:25:11.924Z,100.75
2018-02-09T04:26:17.649Z,100.03
2018-02-09T04:27:24.144Z,103.38
2018-02-09T04:28:29.858Z,96.00
2018-02-09T04:29:35.859Z,95.93
2018-02-09T04:30:42.656Z,92.75
2018-02-09T04:31:49.442Z,101.55
2018-02-09T04:32:55.729Z,92.70
2018-02-09T04:34:01.807Z,100.03
2018-02-09T04:35:08.128Z,108.78
2018-02-09T04:36:14.696Z,96.95
2018-02-09T04:37:20.729Z,96.05
2018-02-09T04:38:28.117Z,101.45
2018-02-09T04:39:35.856Z,96.55
2018-02-09T04:40:42.716Z,95.40
2018-02-09T04:41:48.601Z,95.72
2018-02-09T04:42:55.261Z,99.55
2018-02-09T04:44:01.116Z,101.87
2018-02-09T04:45:07.253Z,117.10
2018-02-09T04:46:14.214Z,105.28
2018-02-09T04:47:20.082Z,103.05
2018-02-09T04:48:26.049Z,102.43
2018-02-09T04:49:32.741Z,105.78
2018-02-09T04:50:39.256Z,117.65
2018-02-09T04:51:45.239Z,103.30
2018-02-09T04:52:51.981Z,109.37
2018-02-09T04:53:58.779Z,103.62
2018-02-09T04:55:04.950Z,101.25
2018-02-09T04:56:10.975Z,100.57
2018-02-09T04:57:16.858Z,101.15
2018-02-09T04:58:22.821Z,94.15
2018-02-09T04:59:28.843Z,104.20
2018-02-09T05:00:35.717Z,109.05
2018-02-09T05:01:42.428Z,101.20
2018-02-09T05:02:49.117Z,99.72
2018-02-09T05:03:55.348Z,105.45
2018-02-09T05:05:02.175Z,107.72
2018-02-09T05:06:08.691Z,111.32
2018-02-09T05:07:14.752Z,98.97
2018-02-09T05:08:20.669Z,94.00
2018-02-09T05:09:27.421Z,108.78
2018-02-09T05:10:34.414Z,127.12
2018-02-09T05:11:41.726Z,120.68
2018-02-09T05:12:47.831Z,100.53
2018-02-09T05:13:54.557Z,109.75
2018-02-09T05:15:01.396Z,113.85
2018-02-09T05:16:07.555Z,112.72
2018-02-09T05:17:14.462Z,110.68
2018-02-09T05:18:20.180Z,113.00
2018-02-09T05:19:26.184Z,108.87
2018-02-09T05:20:32.169Z,121.72
2018-02-09T05:21:38.210Z,112.07
2018-02-09T05:22:44.194Z,107.00
2018-02-09T05:23:50.317Z,110.82
2018-02-09T05:24:56.280Z,106.78
2018-02-09T05:26:02.177Z,112.60
2018-02-09T05:27:07.964Z,104.32
2018-02-09T05:28:13.882Z,107.82
2018-02-09T05:29:19.946Z,109.82
2018-02-09T05:30:25.993Z,116.10
2018-02-09T05:31:31.941Z,104.75
2018-02-09T05:32:37.975Z,108.68
2018-02-09T05:33:44.684Z,109.57
2018-02-09T05:34:50.425Z,109.05
2018-02-09T05:35:56.541Z,112.22
2018-02-09T05:37:02.488Z,108.15
2018-02-09T05:38:08.300Z,114.70
2018-02-09T05:39:14.442Z,110.37
2018-02-09T05:40:20.301Z,114.45
2018-02-09T05:41:27.017Z,105.97
2018-02-09T05:42:34.560Z,109.93
2018-02-09T05:43:40.696Z,104.50
2018-02-09T05:44:47.129Z,122.90
2018-02-09T05:45:53.132Z,114.37
2018-02-09T05:46:59.096Z,105.30
2018-02-09T05:48:04.863Z,112.10
2018-02-09T05:49:10.774Z,115.57
2018-02-09T05:50:16.797Z,122.22
2018-02-09T05:51:22.736Z,114.62
2018-02-09T05:52:29.486Z,117.03
2018-02-09T05:53:35.537Z,111.30
2018-02-09T05:54:41.454Z,112.47
2018-02-09T05:55:47.307Z,108.18
2018-02-09T05:56:53.307Z,113.05
2018-02-09T05:57:59.967Z,106.20
2018-02-09T05:59:06.230Z,139.05
2018-02-09T06:00:11.974Z,117.57
2018-02-09T06:01:17.702Z,110.35
2018-02-09T06:02:23.459Z,111.25
2018-02-09T06:03:29.216Z,120.15
2018-02-09T06:04:34.927Z,114.03
2018-02-09T06:05:40.671Z,123.00
2018-02-09T06:06:46.605Z,121.68
2018-02-09T06:07:52.007Z,109.28
2018-02-09T06:08:58.104Z,112.55
2018-02-09T06:10:03.821Z,121.60
2018-02-09T06:11:09.548Z,110.93
2018-02-09T06:12:16.043Z,122.57
2018-02-09T06:13:21.778Z,112.15
2018-02-09T06:14:27.549Z,111.07
2018-02-09T06:15:33.276Z,106.68
2018-02-09T06:16:39.004Z,111.45
2018-02-09T06:17:44.723Z,117.70
2018-02-09T06:18:51.230Z,118.60
2018-02-09T06:19:57.164Z,119.78
2018-02-09T06:21:02.888Z,112.32
2018-02-09T06:22:08.612Z,116.28
2018-02-09T06:23:14.356Z,124.50
2018-02-09T06:24:20.080Z,117.20
2018-02-09T06:25:26.600Z,109.47
2018-02-09T06:26:32.386Z,123.55
2018-02-09T06:27:38.880Z,114.62
2018-02-09T06:28:44.610Z,123.82
2018-02-09T06:29:50.367Z,127.55
2018-02-09T06:30:56.113Z,123.72
2018-02-09T06:32:01.836Z,130.57
2018-02-09T06:33:07.773Z,132.52
2018-02-09T06:34:13.487Z,127.15
2018-02-09T06:35:20.023Z,132.57
2018-02-09T06:36:25.775Z,126.15
2018-02-09T06:37:31.515Z,136.68
2018-02-09T06:38:38.020Z,140.80
2018-02-09T06:39:43.731Z,140.00
2018-02-09T06:40:50.232Z,127.18
2018-02-09T06:41:55.987Z,124.80
2018-02-09T06:43:01.711Z,129.87
2018-02-09T06:44:07.339Z,122.37
2018-02-09T06:45:13.051Z,134.57
2018-02-09T06:46:19.535Z,123.53
2018-02-09T06:47:26.099Z,129.55
2018-02-09T06:48:31.817Z,140.52
2018-02-09T06:49:38.307Z,132.07
2018-02-09T06:50:44.039Z,119.45
2018-02-09T06:51:49.760Z,116.55
2018-02-09T06:52:56.282Z,136.15
2018-02-09T06:54:02.009Z,135.77
2018-02-09T06:55:07.736Z,113.97
2018-02-09T06:56:13.465Z,123.78
2018-02-09T06:57:19.213Z,126.95
2018-02-09T06:58:24.967Z,122.70
2018-02-09T06:59:30.691Z,124.40
2018-02-09T07:00:37.627Z,116.75
2018-02-09T07:01:44.116Z,112.37
2018-02-09T07:02:50.108Z,130.73
2018-02-09T07:03:56.002Z,119.87
2018-02-09T07:05:01.974Z,119.05
2018-02-09T07:06:07.843Z,106.87
2018-02-09T07:07:13.561Z,123.28
2018-02-09T07:08:19.295Z,126.15
2018-02-09T07:09:25.082Z,122.90
2018-02-09T07:10:30.824Z,118.28
2018-02-09T07:11:37.724Z,122.68
2018-02-09T07:13:47.154Z,125.38
2018-02-09T07:14:53.776Z,112.62
2018-02-09T07:15:59.664Z,126.95
2018-02-09T07:17:05.375Z,135.25
2018-02-09T07:18:12.106Z,120.53
2018-02-09T07:19:17.847Z,116.90
2018-02-09T07:20:23.600Z,127.82
2018-02-09T07:21:30.848Z,134.05
2018-02-09T07:22:36.620Z,125.62
2018-02-09T07:23:42.340Z,133.87
2018-02-09T07:24:48.069Z,136.60
2018-02-09T07:25:53.879Z,120.45
2018-02-09T07:26:59.613Z,124.72
2018-02-09T07:28:06.103Z,134.57
2018-02-09T07:29:11.833Z,136.52
2018-02-09T07:30:17.569Z,131.48
2018-02-09T07:31:24.101Z,124.90
2018-02-09T07:32:30.798Z,126.05
2018-02-09T07:33:37.486Z,146.55
2018-02-09T07:34:43.290Z,137.43
2018-02-09T07:35:49.909Z,144.75
2018-02-09T07:36:56.468Z,131.60
2018-02-09T07:38:02.347Z,144.70
2018-02-09T07:39:08.356Z,137.00
2018-02-09T07:40:14.843Z,129.50
2018-02-09T07:41:21.360Z,142.65
2018-02-09T07:42:27.123Z,145.32
2018-02-09T07:43:32.919Z,147.93
2018-02-09T07:44:38.636Z,133.80
2018-02-09T07:45:45.136Z,150.50
2018-02-09T07:46:50.872Z,147.80
2018-02-09T07:47:56.624Z,143.20
2018-02-09T07:49:02.365Z,141.95
2018-02-09T07:50:08.083Z,144.57
2018-02-09T07:51:13.809Z,146.45
2018-02-09T07:52:19.288Z,147.37
2018-02-09T07:53:25.071Z,151.20
2018-02-09T07:54:31.464Z,142.00
2018-02-09T07:55:37.200Z,144.87
2018-02-09T07:56:42.942Z,139.32
2018-02-09T07:57:48.492Z,147.32
2018-02-09T07:58:54.260Z,161.00
2018-02-09T08:00:00.788Z,148.70
2018-02-09T08:01:06.716Z,156.77
2018-02-09T08:02:12.462Z,150.80
2018-02-09T08:03:18.203Z,139.20
2018-02-09T08:04:23.948Z,137.85
2018-02-09T08:05:29.680Z,153.12
2018-02-09T08:06:35.415Z,138.93
2018-02-09T08:07:42.674Z,155.48
2018-02-09T08:08:49.176Z,148.90
2018-02-09T08:09:54.916Z,137.40
2018-02-09T08:11:00.714Z,142.13
2018-02-09T08:12:07.307Z,142.07
2018-02-09T08:13:13.060Z,142.20
2018-02-09T08:14:18.803Z,140.27
2018-02-09T08:15:24.885Z,149.12
2018-02-09T08:16:30.601Z,138.73
2018-02-09T08:17:36.318Z,135.43
2018-02-09T08:18:42.060Z,130.12
2018-02-09T08:19:47.800Z,143.55
2018-02-09T08:20:53.549Z,126.95
2018-02-09T08:21:59.156Z,136.15
2018-02-09T08:23:05.645Z,131.45
2018-02-09T08:24:11.359Z,131.87
2018-02-09T08:25:17.852Z,137.02
2018-02-09T08:26:23.615Z,144.82
2018-02-09T08:27:29.352Z,139.95
2018-02-09T08:28:35.067Z,136.43
2018-02-09T08:29:40.776Z,133.77
2018-02-09T08:30:47.265Z,133.77
2018-02-09T08:31:53.008Z,122.68
2018-02-09T08:32:58.720Z,141.07
2018-02-09T08:34:05.228Z,133.35
2018-02-09T08:35:10.949Z,134.35
2018-02-09T08:36:16.954Z,134.65
2018-02-09T08:37:22.690Z,132.50
2018-02-09T08:38:28.401Z,119.03
2018-02-09T08:39:34.164Z,121.87
2018-02-09T08:40:40.095Z,131.87
2018-02-09T08:41:45.824Z,108.90
2018-02-09T08:42:51.296Z,127.13
2018-02-09T08:43:57.058Z,123.80
2018-02-09T08:45:02.787Z,113.88
2018-02-09T08:46:08.508Z,126.00
2018-02-09T08:47:14.232Z,107.95
2018-02-09T08:48:19.983Z,127.47
2018-02-09T08:49:25.696Z,116.18
2018-02-09T08:50:32.216Z,112.35
2018-02-09T08:51:37.932Z,110.75
2018-02-09T08:52:43.639Z,114.05
2018-02-09T08:53:49.400Z,119.65
2018-02-09T08:54:55.132Z,123.40
2018-02-09T08:56:00.844Z,116.40
2018-02-09T08:57:07.131Z,112.12
2018-02-09T08:58:12.858Z,119.55
2018-02-09T08:59:19.561Z,116.00
2018-02-09T09:00:25.575Z,111.18
2018-02-09T09:01:31.625Z,123.18
2018-02-09T09:02:37.372Z,110.88
2018-02-09T09:03:43.084Z,116.97
2018-02-09T09:04:49.592Z,115.68
2018-02-09T09:05:55.303Z,109.05
2018-02-09T09:07:01.012Z,104.45
2018-02-09T09:08:07.501Z,116.20
2018-02-09T09:09:13.451Z,113.62
2018-02-09T09:10:19.274Z,116.80
2018-02-09T09:11:25.848Z,114.50
2018-02-09T09:12:31.999Z,113.05
2018-02-09T09:13:37.721Z,114.68
2018-02-09T09:14:44.285Z,110.35
2018-02-09T09:15:50.960Z,106.32
2018-02-09T09:16:56.768Z,116.70
2018-02-09T09:18:03.273Z,103.20
2018-02-09T09:19:08.979Z,106.65
2018-02-09T09:20:15.487Z,113.00
2018-02-09T09:21:21.223Z,106.82
2018-02-09T09:22:26.736Z,108.10
2018-02-09T09:23:32.482Z,112.32
2018-02-09T09:24:37.949Z,111.50
2018-02-09T09:25:43.747Z,108.35
2018-02-09T09:26:50.287Z,102.70
2018-02-09T09:27:55.992Z,101.82
2018-02-09T09:29:01.714Z,114.30
2018-02-09T09:30:07.431Z,102.07
2018-02-09T09:31:13.901Z,107.75
2018-02-09T09:32:19.636Z,108.40
2018-02-09T09:33:26.133Z,101.50
2018-02-09T09:34:31.841Z,101.35
2018-02-09T09:35:37.552Z,101.18
2018-02-09T09:36:43.260Z,97.60
2018-02-09T09:37:49.029Z,101.22
2018-02-09T09:38:55.507Z,99.13
2018-02-09T09:40:01.978Z,97.60
2018-02-09T09:41:07.686Z,92.35
2018-02-09T09:42:13.410Z,100.20
2018-02-09T09:43:19.149Z,96.07
2018-02-09T09:44:24.886Z,102.35
2018-02-09T09:45:30.593Z,96.78
2018-02-09T09:46:36.315Z,102.55
2018-02-09T09:47:42.790Z,91.35
2018-02-09T09:48:48.528Z,98.37
2018-02-09T09:49:54.035Z,94.43
2018-02-09T09:51:00.516Z,105.22
2018-02-09T09:52:06.261Z,100.55
2018-02-09T09:53:11.961Z,91.07
2018-02-09T09:54:17.696Z,100.32
2018-02-09T09:55:24.932Z,101.07
2018-02-09T09:56:30.658Z,99.35
2018-02-09T09:57:36.459Z,101.43
2018-02-09T09:58:42.954Z,102.47
2018-02-09T09:59:49.447Z,106.40
2018-02-09T10:00:55.169Z,105.60
2018-02-09T10:02:00.876Z,106.55
2018-02-09T10:03:07.368Z,104.82
2018-02-09T10:04:13.095Z,102.95
2018-02-09T10:05:18.832Z,104.72
2018-02-09T10:06:24.555Z,113.12
2018-02-09T10:07:31.044Z,105.07
2018-02-09T10:08:36.752Z,112.12
2018-02-09T10:09:43.245Z,97.93
2018-02-09T10:10:48.989Z,104.93
2018-02-09T10:11:54.754Z,106.70
2018-02-09T10:13:00.460Z,107.53
2018-02-09T10:14:06.184Z,105.80
2018-02-09T10:15:12.656Z,113.47
2018-02-09T10:16:18.402Z,109.68
2018-02-09T10:17:24.151Z,106.25
2018-02-09T10:18:29.850Z,102.22
2018-02-09T10:19:36.332Z,102.28
2018-02-09T10:20:42.056Z,101.60
2018-02-09T10:21:48.552Z,114.10
2018-02-09T10:22:54.281Z,109.47
2018-02-09T10:24:02.667Z,113.45
2018-02-09T10:25:08.401Z,115.25
2018-02-09T10:26:14.880Z,102.70
2018-02-09T10:27:20.719Z,112.43
2018-02-09T10:28:26.425Z,109.63
2018-02-09T10:29:32.140Z,112.28
2018-02-09T10:30:37.876Z,113.32
2018-02-09T10:31:43.686Z,111.45
2018-02-09T10:32:49.440Z,115.78
2018-02-09T10:33:55.147Z,110.97
2018-02-09T10:35:01.629Z,106.28
2018-02-09T10:36:07.345Z,110.65
2018-02-09T10:37:13.826Z,111.12
2018-02-09T10:38:22.193Z,114.68
2018-02-09T10:39:27.891Z,115.43
2018-02-09T10:40:33.704Z,112.62
2018-02-09T10:41:40.180Z,102.15
2018-02-09T10:42:45.912Z,113.57
2018-02-09T10:43:51.640Z,110.32
2018-02-09T10:44:58.159Z,123.15
2018-02-09T10:46:03.892Z,123.40
2018-02-09T10:47:09.609Z,121.57
2018-02-09T10:48:15.323Z,112.45
2018-02-09T10:49:21.085Z,115.40
2018-02-09T10:50:26.841Z,119.28
2018-02-09T10:51:32.659Z,117.65
2018-02-09T10:52:38.371Z,117.30
2018-02-09T10:53:44.865Z,120.07
2018-02-09T10:54:50.605Z,117.53
2018-02-09T10:55:56.332Z,117.05
2018-02-09T10:57:02.044Z,115.88
2018-02-09T10:58:08.533Z,120.90
2018-02-09T10:59:14.274Z,114.47
2018-02-09T11:01:58.946Z,125.43
2018-02-09T11:03:04.667Z,109.63
2018-02-09T11:04:11.162Z,106.93
2018-02-09T11:05:16.892Z,108.65
2018-02-09T11:06:22.633Z,110.28
2018-02-09T11:07:28.341Z,108.63
2018-02-09T11:08:34.819Z,111.05
2018-02-09T11:09:40.353Z,116.28
2018-02-09T11:10:50.420Z,135.43
2018-02-09T11:12:01.892Z,111.60
2018-02-09T11:13:13.079Z,115.35
2018-02-09T11:14:18.784Z,108.72
2018-02-09T11:15:24.501Z,106.87
2018-02-09T11:16:30.967Z,107.22
2018-02-09T11:17:37.527Z,108.78
2018-02-09T11:18:44.067Z,115.12
2018-02-09T11:19:50.569Z,116.47
2018-02-09T11:20:56.539Z,102.22
2018-02-09T11:22:02.305Z,107.28
2018-02-09T11:23:08.153Z,104.57
2018-02-09T11:24:15.366Z,103.95
2018-02-09T11:25:21.117Z,109.37
2018-02-09T11:26:26.890Z,100.78
2018-02-09T11:27:32.864Z,110.97
2018-02-09T11:28:38.740Z,108.72
2018-02-09T11:29:45.230Z,109.87
2018-02-09T11:30:51.228Z,110.85
2018-02-09T11:31:57.716Z,106.12
2018-02-09T11:33:03.452Z,117.13
2018-02-09T11:34:09.188Z,112.12
2018-02-09T11:35:15.410Z,104.60
2018-02-09T11:36:21.116Z,99.65
2018-02-09T11:37:26.828Z,100.70
2018-02-09T11:38:32.552Z,101.70
2018-02-09T11:39:38.318Z,110.07
2018-02-09T11:40:44.041Z,104.55
2018-02-09T11:41:49.756Z,107.82
2018-02-09T11:42:56.224Z,104.95
2018-02-09T11:44:02.730Z,110.18
2018-02-09T11:45:08.476Z,108.28
2018-02-09T11:46:14.191Z,108.35
2018-02-09T11:47:19.893Z,105.15
2018-02-09T11:48:26.380Z,103.07
2018-02-09T11:49:32.122Z,104.70
2018-02-09T11:50:38.813Z,105.80
2018-02-09T11:51:45.289Z,99.82
2018-02-09T11:52:51.002Z,104.30
2018-02-09T11:53:56.736Z,113.05
2018-02-09T11:55:02.445Z,113.78
2018-02-09T11:56:08.963Z,107.47
2018-02-09T11:57:14.681Z,95.72
2018-02-09T11:58:20.394Z,102.40
2018-02-09T11:59:26.867Z,103.35
2018-02-09T12:00:32.616Z,108.87
2018-02-09T12:01:38.370Z,103.53
2018-02-09T12:02:44.238Z,112.35
2018-02-09T12:03:49.944Z,109.05
2018-02-09T12:04:55.662Z,107.40
2018-02-09T12:06:02.147Z,104.95
2018-02-09T12:07:07.908Z,111.75
2018-02-09T12:08:13.646Z,107.25
2018-02-09T12:09:19.357Z,112.80
2018-02-09T12:10:25.117Z,100.55
2018-02-09T12:11:30.866Z,114.40
2018-02-09T12:12:36.608Z,106.85
2018-02-09T12:13:42.328Z,106.93
2018-02-09T12:14:48.032Z,106.43
2018-02-09T12:15:54.517Z,109.18
2018-02-09T12:17:00.294Z,103.57
2018-02-09T12:18:06.028Z,99.47
2018-02-09T12:19:11.799Z,106.75
2018-02-09T12:20:17.517Z,111.95
2018-02-09T12:21:23.232Z,107.40
2018-02-09T12:22:28.941Z,109.82
2018-02-09T12:23:35.460Z,105.95
2018-02-09T12:24:41.176Z,99.87
2018-02-09T12:25:47.212Z,113.45
2018-02-09T12:26:52.940Z,94.32
2018-02-09T12:27:58.656Z,101.12
2018-02-09T12:29:04.389Z,110.07
2018-02-09T12:30:09.832Z,102.73
2018-02-09T12:31:15.610Z,101.07
2018-02-09T12:32:21.325Z,104.53
2018-02-09T12:33:27.798Z,108.57
2018-02-09T12:34:33.543Z,110.12
2018-02-09T12:35:39.148Z,115.40
2018-02-09T12:36:44.957Z,109.82
2018-02-09T12:37:50.784Z,102.68
2018-02-09T12:38:56.513Z,99.07
2018-02-09T12:40:02.333Z,98.80
2018-02-09T12:41:08.953Z,98.40
2018-02-09T12:42:15.407Z,101.87
2018-02-09T12:43:21.943Z,99.37
2018-02-09T12:44:27.695Z,101.55
2018-02-09T12:45:33.465Z,97.00
2018-02-09T12:46:39.224Z,95.38
2018-02-09T12:47:45.721Z,113.90
2018-02-09T12:48:53.196Z,98.47
2018-02-09T12:49:59.672Z,95.38
2018-02-09T12:51:05.898Z,102.55
2018-02-09T12:52:11.636Z,100.03
2018-02-09T12:53:19.080Z,88.45
2018-02-09T12:54:24.948Z,88.37
2018-02-09T12:55:30.660Z,89.37
2018-02-09T12:56:37.159Z,89.47
2018-02-09T12:57:43.652Z,90.82
2018-02-09T12:58:49.407Z,91.05
2018-02-09T12:59:55.118Z,91.72
2018-02-09T13:01:00.932Z,94.18
2018-02-09T13:02:07.445Z,90.93
2018-02-09T13:03:13.259Z,96.05
2018-02-09T13:04:19.037Z,90.82
2018-02-09T13:05:24.783Z,95.38
2018-02-09T13:06:30.516Z,95.72
2018-02-09T13:07:36.263Z,94.53
2018-02-09T13:08:42.889Z,96.25
2018-02-09T13:09:48.849Z,97.82
2018-02-09T13:10:54.568Z,101.00
2018-02-09T13:12:01.833Z,86.53
2018-02-09T13:13:12.343Z,92.00
2018-02-09T13:14:35.420Z,93.12
2018-02-09T13:15:41.152Z,91.28
2018-02-09T13:16:46.885Z,96.22
2018-02-09T13:17:52.665Z,93.15
2018-02-09T13:18:59.492Z,92.47
2018-02-09T13:20:05.351Z,88.45
2018-02-09T13:21:11.101Z,101.57
2018-02-09T13:24:26.106Z,89.15
2018-02-09T13:25:32.058Z,91.43
2018-02-09T13:26:36.527Z,92.65
2018-02-09T13:27:40.991Z,94.90
2018-02-09T13:28:56.789Z,89.93
2018-02-09T13:30:01.279Z,94.72
2018-02-09T13:31:07.218Z,90.72
2018-02-09T13:32:11.026Z,106.95
2018-02-09T13:33:27.641Z,89.62
2018-02-09T13:34:32.993Z,91.32
2018-02-09T13:35:37.973Z,93.47
2018-02-09T13:38:37.057Z,87.53
2018-02-09T13:39:41.522Z,94.68
2018-02-09T13:40:46.067Z,89.80
2018-02-09T13:41:50.493Z,89.45
2018-02-09T13:42:54.949Z,93.72
2018-02-09T13:43:59.417Z,85.72
2018-02-09T13:45:03.519Z,89.20
2018-02-09T13:46:07.690Z,88.12
2018-02-09T13:47:13.393Z,89.03
2018-02-09T13:48:18.606Z,76.22
2018-02-09T13:49:23.829Z,83.07
2018-02-09T13:50:29.055Z,81.80
2018-02-09T13:51:33.530Z,87.82
2018-02-09T13:52:39.001Z,82.88
2018-02-09T13:53:44.221Z,86.25
2018-02-09T13:54:48.670Z,81.80
2018-02-09T13:55:53.109Z,79.00
2018-02-09T13:56:57.593Z,83.07
2018-02-09T13:58:02.084Z,78.10
2018-02-09T13:59:07.197Z,79.55
2018-02-09T14:00:11.693Z,77.68
2018-02-09T14:01:16.143Z,75.82